Las horas y fechas están en horario UTC
Sumar 1 hora en el horario de invierno y 2 en el de verano

Informes METAR cercanos

 

LEZL - Sevilla (civ/Mil, Spain
Distance from station: NNE 24km
Actualización: 25/06/2018 19:00
Despejado
Despejado
 Viento del SO
Viento: SO 15 km/h
Temperatura: 29°C
Heat Index: 29°C
Rocío: 17°C
Humedad: 48%
Barómetro: 1015 hPa
Resumen: Despejado
Visibility: greater than 10 km
2018/06/25 17:00 LEZL 251700Z 23008KT 200V270 CAVOK 29/17 Q1015 NOSIG
LEMO - Moron (sp-Usafb), Spain
Distance from station: E 38km
Actualización: 25/06/2018 19:00
Parcialmente nuboso
Parcialmente nuboso
 Viento del OSO
Viento: OSO 13 km/h
Temperatura: 27°C
Heat Index: 28°C
Rocío: 17°C
Humedad: 54%
Barómetro: 1015 hPa
Clouds: Parcialmente nuboso
Visibility: 10 km
Cloud details: Few Clouds 1067 m
Parcialmente nuboso 1280 m
2018/06/25 17:00 LEMO 251700Z 25007KT 170V290 9999 FEW035 SCT042 27/17 Q1015 NOSIG
LEJR - Jerez (civ/Mil), Spain
Distance from station: S 53km
Actualización: 25/06/2018 19:30
Despejado
Despejado
 Viento del OSO
Viento: OSO 19 km/h
Temperatura: 25°C
Rocío: 17°C
Humedad: 61%
Barómetro: 1016 hPa
Resumen: Despejado
Visibility: greater than 10 km
2018/06/25 17:30 LEJR 251730Z 24010KT 200V280 CAVOK 25/17 Q1016
 
LERT - Rota Naval Stati, Spain
Distance from station: SSO 71km
Actualización: 25/06/2018 19:00
Muy nuboso
Muy nuboso
 Viento del OSO
Viento: OSO 17 km/h
Temperatura: 23°C
Rocío: 18°C
Humedad: 74%
Barómetro: 1016 hPa
Clouds: Muy nuboso
Visibility: 10 km
Cloud details: Muy nuboso 366 m
2018/06/25 17:00 LERT 251700Z 25009KT 220V290 9999 BKN012 23/18 Q1016 NOSIG
LEBA - Cordoba Airport, Spain
Distance from station: ENE 128km
Actualización: 25/06/2018 19:00
Despejado
Despejado
 Viento del OSO
Viento: OSO 20 km/h
Temperatura: 32°C
Heat Index: 33°C
Rocío: 17°C
Humedad: 41%
Barómetro: 1013 hPa
Resumen: Despejado
Visibility: greater than 10 km
2018/06/25 17:00 LEBA 251700Z 24011KT 210V290 CAVOK 32/17 Q1013
LXGB - Gibraltar (civ/M, Gibraltar
Distance from station: SSE 137km
Actualización: 25/06/2018 18:50
Despejado
Despejado
 Viento del S
Viento: S 28 km/h, Racha: 48 km/h
Temperatura: 24°C
Rocío: 17°C
Humedad: 65%
Barómetro: 1015 hPa
Resumen: Despejado
Visibility: greater than 10 km
2018/06/25 16:50 LXGB 251650Z 19015G26KT CAVOK 24/17 Q1015 BECMG 26014KT
 
LEMG - Malaga (civ/Mil), Spain
Distance from station: ESE 150km
Actualización: 25/06/2018 19:00
Despejado
Despejado
 Viento del SE
Viento: SE 19 km/h
Temperatura: 27°C
Heat Index: 27°C
Rocío: 14°C
Humedad: 45%
Barómetro: 1015 hPa
Resumen: Despejado
Visibility: greater than 10 km
2018/06/25 17:00 LEMG 251700Z 14010KT 100V170 CAVOK 27/14 Q1015 NOSIG
GMTT - Tangier/Boukhalf, Morocco
Distance from station: S 169km
Actualización: 25/06/2018 19:00
Muy nuboso
Muy nuboso
 Viento del O
Viento: O 13 km/h
Temperatura: 22°C
Rocío: 15°C
Humedad: 65%
Barómetro: 1018 hPa
Clouds: Muy nuboso
Visibility: 10 km
Cloud details: Parcialmente nuboso 488 m
Parcialmente nuboso 610 m
Muy nuboso 2530 m
2018/06/25 17:00 GMTT 251700Z 27007KT 230V300 9999 SCT016 SCT020 BKN083 22/15 Q1018 NOSIG
LPFR - Faro, Portugal
Distance from station: O 172km
Actualización: 25/06/2018 19:00
Despejado
Despejado
 Viento del O
Viento: O 28 km/h
Temperatura: 24°C
Rocío: 16°C
Humedad: 61%
Barómetro: 1016 hPa
Resumen: Despejado
Visibility: greater than 10 km
2018/06/25 17:00 LPFR 251700Z 26015KT CAVOK 24/16 Q1016
 
LPBJ - Beja (por/Ger-Af, Portugal
Distance from station: ONO 192km
Actualización: 25/06/2018 19:00
Few Clouds
Few Clouds
 Viento del varies
Viento: varies 0 km/h
Temperatura: 26°C
Rocío: 17°C
Humedad: 58%
Barómetro: 1017 hPa
Clouds: Few Clouds
Visibility: 10 km
Cloud details: Few Clouds 1219 m
2018/06/25 17:00 LPBJ 251700Z /////KT 9999 FEW040 26/17 Q1017
LEBZ - Talavera Ab/Bada, Spain
Distance from station: NNO 194km
Actualización: 25/06/2018 19:00
Despejado
Despejado
 Viento del ONO
Viento: ONO 20 km/h
Temperatura: 31°C
Heat Index: 32°C
Rocío: 17°C
Humedad: 43%
Barómetro: 1015 hPa
Resumen: Despejado
Visibility: greater than 10 km
2018/06/25 17:00 LEBZ 251700Z 29011KT 240V320 CAVOK 31/17 Q1015
LEMD - Madrid/Barajas, Spain
Distance from station: NE 415km
Actualización: 25/06/2018 19:00
Despejado
Despejado
 Viento del varies
Viento: varies 11 km/h
Temperatura: 37°C
Rocío: 9°C
Humedad: 18%
Barómetro: 1014 hPa
Resumen: Despejado
Visibility: greater than 10 km
2018/06/25 17:00 LEMD 251700Z VRB06KT CAVOK 37/09 Q1014 NOSIG